sensor_id;sensor_type;location;lat;lon;timestamp;pressure;altitude;pressure_sealevel;temperature;humidity
52343;BME280;38277;51.972;4.624;2023-02-17T00:00:32;102110.0;;;11.1;93.0
52343;BME280;38277;51.972;4.624;2023-02-17T00:04:34;102100.0;;;11.0;93.0
52343;BME280;38277;51.972;4.624;2023-02-17T00:13:26;102100.0;;;10.8;93.5
52343;BME280;38277;51.972;4.624;2023-02-17T00:18:08;102100.0;;;10.7;94.0
52343;BME280;38277;51.972;4.624;2023-02-17T00:22:37;102090.0;;;10.6;94.5
52343;BME280;38277;51.972;4.624;2023-02-17T00:26:43;102110.0;;;10.6;94.5
52343;BME280;38277;51.972;4.624;2023-02-17T00:31:37;102120.0;;;10.5;95.0
52343;BME280;38277;51.972;4.624;2023-02-17T00:36:53;102090.0;;;10.5;95.5
52343;BME280;38277;51.972;4.624;2023-02-17T00:40:18;102090.0;;;10.5;95.5
52343;BME280;38277;51.972;4.624;2023-02-17T00:45:07;102080.0;;;10.5;96.0
52343;BME280;38277;51.972;4.624;2023-02-17T00:49:37;102090.0;;;10.4;96.0
52343;BME280;38277;51.972;4.624;2023-02-17T00:54:20;102080.0;;;10.4;96.0
52343;BME280;38277;51.972;4.624;2023-02-17T00:58:22;102080.0;;;10.3;96.5
52343;BME280;38277;51.972;4.624;2023-02-17T01:02:49;102080.0;;;10.3;96.5
52343;BME280;38277;51.972;4.624;2023-02-17T01:07:34;102080.0;;;10.3;97.0
52343;BME280;38277;51.972;4.624;2023-02-17T01:11:52;102090.0;;;10.3;97.0
52343;BME280;38277;51.972;4.624;2023-02-17T01:20:55;102110.0;;;10.2;97.0
52343;BME280;38277;51.972;4.624;2023-02-17T01:25:20;102110.0;;;10.2;97.5
52343;BME280;38277;51.972;4.624;2023-02-17T01:29:50;102100.0;;;10.2;97.5
52343;BME280;38277;51.972;4.624;2023-02-17T01:34:19;102090.0;;;10.2;97.5
52343;BME280;38277;51.972;4.624;2023-02-17T01:39:04;102080.0;;;10.3;97.5
52343;BME280;38277;51.972;4.624;2023-02-17T01:44:01;102060.0;;;10.2;97.0
52343;BME280;38277;51.972;4.624;2023-02-17T01:48:16;102070.0;;;10.2;96.5
52343;BME280;38277;51.972;4.624;2023-02-17T01:52:23;102060.0;;;10.2;96.0
52343;BME280;38277;51.972;4.624;2023-02-17T01:57:07;102070.0;;;10.2;95.5
52343;BME280;38277;51.972;4.624;2023-02-17T02:01:36;102080.0;;;10.3;95.0
52343;BME280;38277;51.972;4.624;2023-02-17T02:05:54;102060.0;;;10.2;95.0
52343;BME280;38277;51.972;4.624;2023-02-17T02:15:21;102040.0;;;10.2;94.5
52343;BME280;38277;51.972;4.624;2023-02-17T02:22:58;102010.0;;;10.2;95.0
52343;BME280;38277;51.972;4.624;2023-02-17T02:29:23;102030.0;;;10.2;95.0
52343;BME280;38277;51.972;4.624;2023-02-17T02:37:05;102030.0;;;10.3;94.5
52343;BME280;38277;51.972;4.624;2023-02-17T02:40:05;102020.0;;;10.3;94.5
52343;BME280;38277;51.972;4.624;2023-02-17T02:42:26;102020.0;;;10.3;95.0
52343;BME280;38277;51.972;4.624;2023-02-17T02:46:21;102020.0;;;10.3;95.0
52343;BME280;38277;51.972;4.624;2023-02-17T02:56:14;102020.0;;;10.3;95.5
52343;BME280;38277;51.972;4.624;2023-02-17T03:01:04;102000.0;;;10.3;96.0
52343;BME280;38277;51.972;4.624;2023-02-17T03:09:09;102000.0;;;10.3;96.0
52343;BME280;38277;51.972;4.624;2023-02-17T03:13:25;101960.0;;;10.3;96.5
52343;BME280;38277;51.972;4.624;2023-02-17T03:17:55;101970.0;;;10.3;96.5
52343;BME280;38277;51.972;4.624;2023-02-17T03:27:11;101950.0;;;10.4;96.5
52343;BME280;38277;51.972;4.624;2023-02-17T03:31:20;101950.0;;;10.4;96.5
52343;BME280;38277;51.972;4.624;2023-02-17T03:35:57;101960.0;;;10.5;96.0
52343;BME280;38277;51.972;4.624;2023-02-17T03:40:26;101950.0;;;10.6;96.0
52343;BME280;38277;51.972;4.624;2023-02-17T03:45:04;101960.0;;;10.6;95.5
52343;BME280;38277;51.972;4.624;2023-02-17T03:49:18;101980.0;;;10.7;95.0
52343;BME280;38277;51.972;4.624;2023-02-17T03:54:04;101980.0;;;10.8;94.0
52343;BME280;38277;51.972;4.624;2023-02-17T04:02:44;101960.0;;;10.9;94.0
52343;BME280;38277;51.972;4.624;2023-02-17T04:07:24;101960.0;;;10.9;93.5
52343;BME280;38277;51.972;4.624;2023-02-17T04:11:50;101980.0;;;10.9;93.5
52343;BME280;38277;51.972;4.624;2023-02-17T04:16:35;101980.0;;;10.9;93.5
52343;BME280;38277;51.972;4.624;2023-02-17T04:20:58;101990.0;;;10.9;93.5
52343;BME280;38277;51.972;4.624;2023-02-17T04:25:40;101970.0;;;10.9;94.0
52343;BME280;38277;51.972;4.624;2023-02-17T04:29:47;101950.0;;;10.9;94.0
52343;BME280;38277;51.972;4.624;2023-02-17T04:34:27;101970.0;;;10.9;94.5
52343;BME280;38277;51.972;4.624;2023-02-17T04:38:43;101960.0;;;11.0;95.0
52343;BME280;38277;51.972;4.624;2023-02-17T04:43:25;101960.0;;;11.0;95.0
52343;BME280;38277;51.972;4.624;2023-02-17T04:47:43;101950.0;;;11.0;95.5
52343;BME280;38277;51.972;4.624;2023-02-17T04:52:30;101950.0;;;11.1;95.5
52343;BME280;38277;51.972;4.624;2023-02-17T04:57:03;101940.0;;;11.1;95.0
52343;BME280;38277;51.972;4.624;2023-02-17T05:01:32;101960.0;;;11.1;95.0
52343;BME280;38277;51.972;4.624;2023-02-17T05:06:06;101990.0;;;11.1;95.0
52343;BME280;38277;51.972;4.624;2023-02-17T05:10:23;101980.0;;;11.2;95.0
52343;BME280;38277;51.972;4.624;2023-02-17T05:14:58;101970.0;;;11.2;95.0
52343;BME280;38277;51.972;4.624;2023-02-17T05:24:07;101960.0;;;11.2;95.5
52343;BME280;38277;51.972;4.624;2023-02-17T05:28:21;101950.0;;;11.3;95.5
52343;BME280;38277;51.972;4.624;2023-02-17T05:33:00;101940.0;;;11.3;95.5
52343;BME280;38277;51.972;4.624;2023-02-17T05:37:20;101930.0;;;11.3;96.0
52343;BME280;38277;51.972;4.624;2023-02-17T05:42:08;101930.0;;;11.3;96.0
52343;BME280;38277;51.972;4.624;2023-02-17T05:46:18;101930.0;;;11.3;96.0
52343;BME280;38277;51.972;4.624;2023-02-17T05:51:11;101920.0;;;11.3;96.0
52343;BME280;38277;51.972;4.624;2023-02-17T06:00:03;101910.0;;;11.3;96.5
52343;BME280;38277;51.972;4.624;2023-02-17T06:04:32;101910.0;;;11.3;96.5
52343;BME280;38277;51.972;4.624;2023-02-17T06:09:10;101910.0;;;11.3;96.5
52343;BME280;38277;51.972;4.624;2023-02-17T06:18:32;101920.0;;;11.4;96.0
52343;BME280;38277;51.972;4.624;2023-02-17T06:31:42;101920.0;;;11.5;95.0
52343;BME280;38277;51.972;4.624;2023-02-17T06:35:49;101900.0;;;11.5;95.0
52343;BME280;38277;51.972;4.624;2023-02-17T06:45:03;101890.0;;;11.6;94.5
52343;BME280;38277;51.972;4.624;2023-02-17T06:49:26;101890.0;;;11.6;94.5
52343;BME280;38277;51.972;4.624;2023-02-17T06:53:48;101900.0;;;11.6;94.5
52343;BME280;38277;51.972;4.624;2023-02-17T07:03:00;101890.0;;;11.6;94.5
52343;BME280;38277;51.972;4.624;2023-02-17T07:07:31;101900.0;;;11.7;94.0
52343;BME280;38277;51.972;4.624;2023-02-17T07:11:52;101900.0;;;11.7;93.5
52343;BME280;38277;51.972;4.624;2023-02-17T07:20:52;101910.0;;;11.8;92.0
52343;BME280;38277;51.972;4.624;2023-02-17T07:25:29;101900.0;;;11.8;92.0
52343;BME280;38277;51.972;4.624;2023-02-17T07:30:10;101920.0;;;11.8;91.5
52343;BME280;38277;51.972;4.624;2023-02-17T07:34:26;101900.0;;;11.9;91.0
52343;BME280;38277;51.972;4.624;2023-02-17T07:39:22;101900.0;;;11.8;91.0
52343;BME280;38277;51.972;4.624;2023-02-17T07:43:13;101900.0;;;11.8;91.0
52343;BME280;38277;51.972;4.624;2023-02-17T07:48:09;101910.0;;;11.7;91.0
52343;BME280;38277;51.972;4.624;2023-02-17T07:52:22;101930.0;;;11.7;91.0
52343;BME280;38277;51.972;4.624;2023-02-17T07:57:00;101910.0;;;11.7;91.0
52343;BME280;38277;51.972;4.624;2023-02-17T08:01:34;101940.0;;;11.7;91.5
52343;BME280;38277;51.972;4.624;2023-02-17T08:06:07;101920.0;;;11.7;91.0
52343;BME280;38277;51.972;4.624;2023-02-17T08:10:23;101940.0;;;11.7;91.0
52343;BME280;38277;51.972;4.624;2023-02-17T08:14:43;101960.0;;;11.7;91.0
52343;BME280;38277;51.972;4.624;2023-02-17T08:19:15;101950.0;;;11.7;91.0
52343;BME280;38277;51.972;4.624;2023-02-17T08:23:58;101940.0;;;11.8;91.0
52343;BME280;38277;51.972;4.624;2023-02-17T08:28:42;101960.0;;;11.8;90.5
52343;BME280;38277;51.972;4.624;2023-02-17T08:33:05;101960.0;;;11.9;90.0
52343;BME280;38277;51.972;4.624;2023-02-17T08:37:37;101960.0;;;11.9;90.5
52343;BME280;38277;51.972;4.624;2023-02-17T08:42:31;101980.0;;;11.9;90.0
52343;BME280;38277;51.972;4.624;2023-02-17T08:46:34;101970.0;;;12.0;89.5
52343;BME280;38277;51.972;4.624;2023-02-17T08:51:35;101970.0;;;12.1;89.5
52343;BME280;38277;51.972;4.624;2023-02-17T08:55:39;101980.0;;;12.1;88.5
52343;BME280;38277;51.972;4.624;2023-02-17T09:00:09;101950.0;;;12.2;88.0
52343;BME280;38277;51.972;4.624;2023-02-17T09:04:29;101950.0;;;12.2;87.0
52343;BME280;38277;51.972;4.624;2023-02-17T09:09:12;101960.0;;;12.1;87.5
52343;BME280;38277;51.972;4.624;2023-02-17T09:17:56;101970.0;;;12.1;87.5
52343;BME280;38277;51.972;4.624;2023-02-17T09:22:22;101990.0;;;12.1;87.5
52343;BME280;38277;51.972;4.624;2023-02-17T09:27:08;102000.0;;;12.1;87.5
52343;BME280;38277;51.972;4.624;2023-02-17T09:31:14;101980.0;;;12.1;87.5
52343;BME280;38277;51.972;4.624;2023-02-17T09:36:08;101960.0;;;12.1;87.5
52343;BME280;38277;51.972;4.624;2023-02-17T09:40:17;101970.0;;;12.1;87.5
52343;BME280;38277;51.972;4.624;2023-02-17T09:45:00;101990.0;;;12.2;88.0
52343;BME280;38277;51.972;4.624;2023-02-17T09:49:44;102000.0;;;12.3;87.0
52343;BME280;38277;51.972;4.624;2023-02-17T09:54:17;102000.0;;;12.3;87.5
52343;BME280;38277;51.972;4.624;2023-02-17T09:58:31;101990.0;;;12.4;86.5
52343;BME280;38277;51.972;4.624;2023-02-17T10:02:47;101990.0;;;12.5;86.5
52343;BME280;38277;51.972;4.624;2023-02-17T10:07:43;102000.0;;;12.6;86.0
52343;BME280;38277;51.972;4.624;2023-02-17T10:12:14;102010.0;;;12.7;85.0
52343;BME280;38277;51.972;4.624;2023-02-17T10:16:47;102020.0;;;12.7;85.0
52343;BME280;38277;51.972;4.624;2023-02-17T10:20:59;102020.0;;;12.6;85.5
52343;BME280;38277;51.972;4.624;2023-02-17T10:30:13;102010.0;;;12.6;85.0
52343;BME280;38277;51.972;4.624;2023-02-17T10:34:50;102030.0;;;12.7;85.0
52343;BME280;38277;51.972;4.624;2023-02-17T10:39:23;102030.0;;;12.8;84.5
52343;BME280;38277;51.972;4.624;2023-02-17T10:43:33;102030.0;;;12.8;84.5
52343;BME280;38277;51.972;4.624;2023-02-17T10:48:41;102030.0;;;12.8;84.0
52343;BME280;38277;51.972;4.624;2023-02-17T10:52:20;102030.0;;;12.7;84.0
52343;BME280;38277;51.972;4.624;2023-02-17T10:57:10;102030.0;;;12.7;83.5
52343;BME280;38277;51.972;4.624;2023-02-17T11:01:16;102040.0;;;12.6;84.0
52343;BME280;38277;51.972;4.624;2023-02-17T11:06:22;102060.0;;;12.6;83.5
52343;BME280;38277;51.972;4.624;2023-02-17T11:10:26;102060.0;;;12.5;84.0
52343;BME280;38277;51.972;4.624;2023-02-17T11:15:02;102040.0;;;12.4;84.5
52343;BME280;38277;51.972;4.624;2023-02-17T11:19:56;102040.0;;;12.4;84.5
52343;BME280;38277;51.972;4.624;2023-02-17T11:23:50;102050.0;;;12.3;85.0
52343;BME280;38277;51.972;4.624;2023-02-17T11:28:44;102050.0;;;12.3;85.0
52343;BME280;38277;51.972;4.624;2023-02-17T11:33:09;102050.0;;;12.3;85.0
52343;BME280;38277;51.972;4.624;2023-02-17T11:38:11;102070.0;;;12.4;85.0
52343;BME280;38277;51.972;4.624;2023-02-17T11:42:01;102090.0;;;12.4;84.0
52343;BME280;38277;51.972;4.624;2023-02-17T11:47:11;102060.0;;;12.4;84.0
52343;BME280;38277;51.972;4.624;2023-02-17T11:51:52;102070.0;;;12.5;84.0
52343;BME280;38277;51.972;4.624;2023-02-17T12:00:26;102070.0;;;12.6;83.0
52343;BME280;38277;51.972;4.624;2023-02-17T12:05:50;102100.0;;;12.7;82.5
52343;BME280;38277;51.972;4.624;2023-02-17T12:10:21;102110.0;;;12.7;82.0
52343;BME280;38277;51.972;4.624;2023-02-17T12:16:00;102100.0;;;12.6;82.5
52343;BME280;38277;51.972;4.624;2023-02-17T12:20:57;102100.0;;;12.7;82.5
52343;BME280;38277;51.972;4.624;2023-02-17T12:26:34;102100.0;;;12.7;82.0
52343;BME280;38277;51.972;4.624;2023-02-17T12:31:01;102110.0;;;12.9;81.0
52343;BME280;38277;51.972;4.624;2023-02-17T12:34:54;102130.0;;;12.8;81.0
52343;BME280;38277;51.972;4.624;2023-02-17T12:36:55;102120.0;;;12.8;81.0
52343;BME280;38277;51.972;4.624;2023-02-17T12:41:21;102130.0;;;12.8;80.5
52343;BME280;38277;51.972;4.624;2023-02-17T12:44:49;102150.0;;;12.8;81.0
52343;BME280;38277;51.972;4.624;2023-02-17T12:49:39;102120.0;;;12.8;81.0
52343;BME280;38277;51.972;4.624;2023-02-17T12:54:16;102140.0;;;12.7;81.0
52343;BME280;38277;51.972;4.624;2023-02-17T13:03:01;102160.0;;;12.6;81.5
52343;BME280;38277;51.972;4.624;2023-02-17T13:07:32;102150.0;;;12.6;81.0
52343;BME280;38277;51.972;4.624;2023-02-17T13:12:07;102150.0;;;12.7;80.5
52343;BME280;38277;51.972;4.624;2023-02-17T13:21:14;102150.0;;;12.8;80.5
52343;BME280;38277;51.972;4.624;2023-02-17T13:25:28;102150.0;;;13.0;79.0
52343;BME280;38277;51.972;4.624;2023-02-17T13:30:27;102160.0;;;13.0;79.0
52343;BME280;38277;51.972;4.624;2023-02-17T13:38:51;102160.0;;;13.1;78.5
52343;BME280;38277;51.972;4.624;2023-02-17T13:43:19;102150.0;;;13.2;78.0
52343;BME280;38277;51.972;4.624;2023-02-17T13:47:51;102130.0;;;13.3;78.0
52343;BME280;38277;51.972;4.624;2023-02-17T13:52:32;102140.0;;;13.4;77.5
52343;BME280;38277;51.972;4.624;2023-02-17T13:57:21;102160.0;;;13.5;76.5
52343;BME280;38277;51.972;4.624;2023-02-17T14:01:41;102150.0;;;13.4;77.0
52343;BME280;38277;51.972;4.624;2023-02-17T14:06:12;102130.0;;;13.3;77.0
52343;BME280;38277;51.972;4.624;2023-02-17T14:10:28;102130.0;;;13.3;78.0
52343;BME280;38277;51.972;4.624;2023-02-17T14:14:44;102130.0;;;13.2;78.0
52343;BME280;38277;51.972;4.624;2023-02-17T14:20:03;102150.0;;;13.3;78.5
52343;BME280;38277;51.972;4.624;2023-02-17T14:23:55;102140.0;;;13.4;78.0
52343;BME280;38277;51.972;4.624;2023-02-17T14:28:38;102160.0;;;13.5;77.0
52343;BME280;38277;51.972;4.624;2023-02-17T14:33:00;102150.0;;;13.6;77.0
52343;BME280;38277;51.972;4.624;2023-02-17T14:38:21;102170.0;;;13.8;76.5
52343;BME280;38277;51.972;4.624;2023-02-17T14:42:02;102170.0;;;13.7;76.0
52343;BME280;38277;51.972;4.624;2023-02-17T14:50:58;102170.0;;;13.7;76.5
52343;BME280;38277;51.972;4.624;2023-02-17T14:55:28;102170.0;;;13.7;76.5
52343;BME280;38277;51.972;4.624;2023-02-17T15:00:10;102160.0;;;13.9;75.5
52343;BME280;38277;51.972;4.624;2023-02-17T15:08:56;102170.0;;;13.9;75.5
52343;BME280;38277;51.972;4.624;2023-02-17T15:13:24;102190.0;;;14.1;75.0
52343;BME280;38277;51.972;4.624;2023-02-17T15:26:49;102170.0;;;14.0;74.5
52343;BME280;38277;51.972;4.624;2023-02-17T15:31:28;102190.0;;;14.0;75.0
52343;BME280;38277;51.972;4.624;2023-02-17T15:36:08;102210.0;;;13.9;75.5
52343;BME280;38277;51.972;4.624;2023-02-17T15:45:01;102200.0;;;13.8;75.5
52343;BME280;38277;51.972;4.624;2023-02-17T15:49:34;102210.0;;;13.7;76.0
52343;BME280;38277;51.972;4.624;2023-02-17T15:54:12;102220.0;;;13.5;77.0
52343;BME280;38277;51.972;4.624;2023-02-17T15:58:22;102220.0;;;13.5;77.5
52343;BME280;38277;51.972;4.624;2023-02-17T16:03:08;102230.0;;;13.5;77.5
52343;BME280;38277;51.972;4.624;2023-02-17T16:07:33;102240.0;;;13.4;77.5
52343;BME280;38277;51.972;4.624;2023-02-17T16:16:28;102250.0;;;13.2;78.5
52343;BME280;38277;51.972;4.624;2023-02-17T16:21:08;102240.0;;;13.3;78.5
52343;BME280;38277;51.972;4.624;2023-02-17T16:25:26;102240.0;;;13.1;79.0
52343;BME280;38277;51.972;4.624;2023-02-17T16:29:57;102250.0;;;13.0;79.5
52343;BME280;38277;51.972;4.624;2023-02-17T16:34:16;102270.0;;;13.0;80.0
52343;BME280;38277;51.972;4.624;2023-02-17T16:39:19;102270.0;;;13.0;80.0
52343;BME280;38277;51.972;4.624;2023-02-17T16:43:26;102270.0;;;12.9;80.5
52343;BME280;38277;51.972;4.624;2023-02-17T16:48:13;102260.0;;;12.8;81.0
52343;BME280;38277;51.972;4.624;2023-02-17T16:52:28;102280.0;;;12.7;81.5
52343;BME280;38277;51.972;4.624;2023-02-17T16:57:16;102290.0;;;12.6;82.0
52343;BME280;38277;51.972;4.624;2023-02-17T17:01:21;102290.0;;;12.6;82.5
52343;BME280;38277;51.972;4.624;2023-02-17T17:05:44;102290.0;;;12.6;82.5
52343;BME280;38277;51.972;4.624;2023-02-17T17:10:19;102290.0;;;12.5;83.0
52343;BME280;38277;51.972;4.624;2023-02-17T17:15:34;102280.0;;;12.6;83.0
52343;BME280;38277;51.972;4.624;2023-02-17T17:19:28;102280.0;;;12.5;83.0
52343;BME280;38277;51.972;4.624;2023-02-17T17:24:20;102300.0;;;12.5;83.0
52343;BME280;38277;51.972;4.624;2023-02-17T17:28:18;102320.0;;;12.5;83.0
52343;BME280;38277;51.972;4.624;2023-02-17T17:37:18;102340.0;;;12.4;83.5
52343;BME280;38277;51.972;4.624;2023-02-17T17:41:46;102330.0;;;12.4;84.0
52343;BME280;38277;51.972;4.624;2023-02-17T17:46:23;102360.0;;;12.4;84.0
52343;BME280;38277;51.972;4.624;2023-02-17T17:50:58;102370.0;;;12.3;84.0
52343;BME280;38277;51.972;4.624;2023-02-17T17:55:32;102370.0;;;12.3;84.5
52343;BME280;38277;51.972;4.624;2023-02-17T17:59:53;102350.0;;;12.4;84.0
52343;BME280;38277;51.972;4.624;2023-02-17T18:04:31;102370.0;;;12.3;84.5
52343;BME280;38277;51.972;4.624;2023-02-17T18:13:13;102380.0;;;12.3;84.5
52343;BME280;38277;51.972;4.624;2023-02-17T18:18:04;102380.0;;;12.3;84.5
52343;BME280;38277;51.972;4.624;2023-02-17T18:31:33;102390.0;;;12.2;85.0
52343;BME280;38277;51.972;4.624;2023-02-17T18:35:48;102400.0;;;12.1;85.0
52343;BME280;38277;51.972;4.624;2023-02-17T18:40:20;102400.0;;;12.2;85.0
52343;BME280;38277;51.972;4.624;2023-02-17T18:44:52;102380.0;;;12.1;85.0
52343;BME280;38277;51.972;4.624;2023-02-17T18:49:41;102390.0;;;12.1;85.0
52343;BME280;38277;51.972;4.624;2023-02-17T18:53:44;102430.0;;;12.1;85.0
52343;BME280;38277;51.972;4.624;2023-02-17T18:58:31;102450.0;;;12.1;85.0
52343;BME280;38277;51.972;4.624;2023-02-17T19:02:45;102450.0;;;12.2;85.5
52343;BME280;38277;51.972;4.624;2023-02-17T19:07:34;102460.0;;;12.2;85.0
52343;BME280;38277;51.972;4.624;2023-02-17T19:12:07;102470.0;;;12.2;85.0
52343;BME280;38277;51.972;4.624;2023-02-17T19:16:39;102470.0;;;12.2;84.5
52343;BME280;38277;51.972;4.624;2023-02-17T19:25:36;102460.0;;;12.2;84.5
52343;BME280;38277;51.972;4.624;2023-02-17T19:30:10;102460.0;;;12.2;85.0
52343;BME280;38277;51.972;4.624;2023-02-17T19:34:13;102470.0;;;12.2;84.5
52343;BME280;38277;51.972;4.624;2023-02-17T19:38:44;102480.0;;;12.2;84.5
52343;BME280;38277;51.972;4.624;2023-02-17T19:43:12;102490.0;;;12.3;84.5
52343;BME280;38277;51.972;4.624;2023-02-17T19:48:09;102490.0;;;12.3;84.5
52343;BME280;38277;51.972;4.624;2023-02-17T19:52:32;102500.0;;;12.2;84.5
52343;BME280;38277;51.972;4.624;2023-02-17T19:56:44;102500.0;;;12.2;84.5
52343;BME280;38277;51.972;4.624;2023-02-17T20:01:29;102500.0;;;12.2;84.5
52343;BME280;38277;51.972;4.624;2023-02-17T20:06:02;102490.0;;;12.2;84.5
52343;BME280;38277;51.972;4.624;2023-02-17T20:10:33;102490.0;;;12.2;84.5
52343;BME280;38277;51.972;4.624;2023-02-17T20:15:09;102500.0;;;12.2;84.0
52343;BME280;38277;51.972;4.624;2023-02-17T20:19:35;102500.0;;;12.1;84.5
52343;BME280;38277;51.972;4.624;2023-02-17T20:24:12;102500.0;;;12.1;85.0
52343;BME280;38277;51.972;4.624;2023-02-17T20:28:24;102500.0;;;12.1;85.0
52343;BME280;38277;51.972;4.624;2023-02-17T20:37:28;102510.0;;;12.0;85.0
52343;BME280;38277;51.972;4.624;2023-02-17T20:41:55;102510.0;;;12.0;85.5
52343;BME280;38277;51.972;4.624;2023-02-17T20:46:27;102510.0;;;12.0;85.5
52343;BME280;38277;51.972;4.624;2023-02-17T20:51:04;102500.0;;;11.9;85.5
52343;BME280;38277;51.972;4.624;2023-02-17T20:55:30;102490.0;;;11.9;85.5
52343;BME280;38277;51.972;4.624;2023-02-17T20:59:55;102500.0;;;11.9;86.0
52343;BME280;38277;51.972;4.624;2023-02-17T21:04:22;102500.0;;;11.9;86.0
52343;BME280;38277;51.972;4.624;2023-02-17T21:13:13;102500.0;;;11.9;86.5
52343;BME280;38277;51.972;4.624;2023-02-17T21:18:07;102500.0;;;11.9;86.5
52343;BME280;38277;51.972;4.624;2023-02-17T21:22:13;102490.0;;;11.9;86.5
52343;BME280;38277;51.972;4.624;2023-02-17T21:26:46;102490.0;;;11.9;86.5
52343;BME280;38277;51.972;4.624;2023-02-17T21:31:33;102480.0;;;11.9;86.5
52343;BME280;38277;51.972;4.624;2023-02-17T21:36:03;102480.0;;;12.0;86.5
52343;BME280;38277;51.972;4.624;2023-02-17T21:40:28;102480.0;;;12.0;86.5
52343;BME280;38277;51.972;4.624;2023-02-17T21:44:55;102490.0;;;12.0;86.5
52343;BME280;38277;51.972;4.624;2023-02-17T21:53:50;102480.0;;;12.0;86.0
52343;BME280;38277;51.972;4.624;2023-02-17T21:58:34;102490.0;;;12.0;86.0
52343;BME280;38277;51.972;4.624;2023-02-17T22:02:43;102490.0;;;12.0;86.0
52343;BME280;38277;51.972;4.624;2023-02-17T22:07:22;102480.0;;;12.0;86.0
52343;BME280;38277;51.972;4.624;2023-02-17T22:12:11;102470.0;;;12.0;86.5
52343;BME280;38277;51.972;4.624;2023-02-17T22:16:44;102480.0;;;12.0;86.5
52343;BME280;38277;51.972;4.624;2023-02-17T22:21:33;102470.0;;;12.0;86.5
52343;BME280;38277;51.972;4.624;2023-02-17T22:25:20;102470.0;;;12.0;86.5
52343;BME280;38277;51.972;4.624;2023-02-17T22:30:08;102480.0;;;12.0;86.5
52343;BME280;38277;51.972;4.624;2023-02-17T22:34:49;102480.0;;;12.0;86.5
52343;BME280;38277;51.972;4.624;2023-02-17T22:39:05;102470.0;;;12.0;86.5
52343;BME280;38277;51.972;4.624;2023-02-17T22:43:38;102460.0;;;12.1;86.5
52343;BME280;38277;51.972;4.624;2023-02-17T22:48:09;102470.0;;;12.1;86.5
52343;BME280;38277;51.972;4.624;2023-02-17T22:52:16;102470.0;;;12.0;86.5
52343;BME280;38277;51.972;4.624;2023-02-17T22:56:42;102470.0;;;12.1;86.5
52343;BME280;38277;51.972;4.624;2023-02-17T23:01:36;102480.0;;;12.1;87.0
52343;BME280;38277;51.972;4.624;2023-02-17T23:06:08;102480.0;;;12.1;87.0
52343;BME280;38277;51.972;4.624;2023-02-17T23:10:29;102460.0;;;12.0;87.0
52343;BME280;38277;51.972;4.624;2023-02-17T23:15:33;102460.0;;;12.0;87.0
52343;BME280;38277;51.972;4.624;2023-02-17T23:19:40;102450.0;;;12.0;87.5
52343;BME280;38277;51.972;4.624;2023-02-17T23:23:49;102450.0;;;12.0;87.0
52343;BME280;38277;51.972;4.624;2023-02-17T23:28:24;102450.0;;;11.8;87.0
52343;BME280;38277;51.972;4.624;2023-02-17T23:33:11;102430.0;;;11.7;87.5
52343;BME280;38277;51.972;4.624;2023-02-17T23:42:08;102430.0;;;11.6;88.0
52343;BME280;38277;51.972;4.624;2023-02-17T23:46:39;102420.0;;;11.5;88.5
52343;BME280;38277;51.972;4.624;2023-02-17T23:50:54;102420.0;;;11.4;88.5
52343;BME280;38277;51.972;4.624;2023-02-17T23:55:30;102410.0;;;11.3;89.0
52343;BME280;38277;51.972;4.624;2023-02-17T23:59:55;102410.0;;;11.1;89.5
